createdAt,value
2022-09-17T00:01:28.491Z,17.64
2022-09-17T00:04:00.546Z,17.63
2022-09-17T00:06:28.380Z,17.62
2022-09-17T00:08:56.275Z,17.56
2022-09-17T00:11:28.195Z,17.59
2022-09-17T00:13:56.595Z,17.57
2022-09-17T00:16:29.854Z,17.56
2022-09-17T00:18:58.532Z,17.55
2022-09-17T00:21:26.576Z,17.53
2022-09-17T00:24:02.834Z,17.51
2022-09-17T00:26:31.591Z,17.49
2022-09-17T00:29:00.465Z,17.45
2022-09-17T00:31:29.882Z,17.46
2022-09-17T00:33:59.291Z,17.45
2022-09-17T00:36:27.067Z,17.45
2022-09-17T00:38:57.501Z,17.43
2022-09-17T00:41:27.486Z,17.51
2022-09-17T00:43:58.169Z,17.51
2022-09-17T00:46:25.642Z,17.52
2022-09-17T00:48:55.504Z,17.51
2022-09-17T00:52:00.465Z,17.55
2022-09-17T00:54:28.889Z,17.56
2022-09-17T00:57:00.681Z,17.58
2022-09-17T00:59:28.983Z,17.59
2022-09-17T01:01:56.548Z,17.57
2022-09-17T01:04:26.895Z,17.61
2022-09-17T01:07:18.914Z,17.61
2022-09-17T01:10:07.265Z,17.61
2022-09-17T01:12:44.114Z,17.61
2022-09-17T01:15:33.392Z,17.58
2022-09-17T01:18:09.771Z,17.55
2022-09-17T01:21:23.671Z,17.52
2022-09-17T01:24:05.115Z,17.47
2022-09-17T01:27:01.116Z,17.43
2022-09-17T01:29:42.028Z,17.39
2022-09-17T01:32:13.022Z,17.37
2022-09-17T01:35:11.100Z,17.37
2022-09-17T01:38:06.744Z,17.38
2022-09-17T01:40:46.220Z,17.40
2022-09-17T01:43:27.837Z,17.43
2022-09-17T01:46:01.615Z,17.43
2022-09-17T01:48:35.863Z,17.44
2022-09-17T01:51:11.108Z,17.45
2022-09-17T01:54:00.596Z,17.45
2022-09-17T01:56:39.850Z,17.50
2022-09-17T01:59:28.120Z,17.51
2022-09-17T02:02:03.452Z,17.50
2022-09-17T02:04:37.513Z,17.50
2022-09-17T02:07:11.460Z,17.46
2022-09-17T02:09:53.672Z,17.43
2022-09-17T02:12:27.865Z,17.40
2022-09-17T02:14:59.364Z,17.37
2022-09-17T02:17:29.513Z,17.34
2022-09-17T02:19:59.863Z,17.30
2022-09-17T02:22:50.657Z,17.24
2022-09-17T02:25:29.388Z,17.20
2022-09-17T02:28:04.321Z,17.17
2022-09-17T02:30:32.829Z,17.15
2022-09-17T02:33:05.733Z,17.14
2022-09-17T02:35:34.734Z,17.10
2022-09-17T02:38:02.263Z,17.10
2022-09-17T02:40:36.365Z,17.06
2022-09-17T02:43:20.577Z,17.06
2022-09-17T02:46:00.204Z,17.06
2022-09-17T02:48:45.733Z,17.05
2022-09-17T02:51:21.892Z,17.03
2022-09-17T02:53:59.461Z,17.02
2022-09-17T02:56:34.357Z,17.03
2022-09-17T02:59:12.691Z,17.04
2022-09-17T03:01:45.239Z,17.06
2022-09-17T03:04:16.280Z,17.10
2022-09-17T03:06:46.627Z,17.14
2022-09-17T03:09:17.170Z,17.19
2022-09-17T03:11:44.754Z,17.28
2022-09-17T03:14:12.207Z,17.45
2022-09-17T03:16:39.715Z,17.70
2022-09-17T03:19:07.189Z,17.80
2022-09-17T03:21:34.616Z,17.86
2022-09-17T03:24:02.351Z,17.87
2022-09-17T03:26:30.610Z,17.85
2022-09-17T03:28:59.141Z,17.87
2022-09-17T03:31:26.798Z,17.89
2022-09-17T03:33:54.331Z,17.92
2022-09-17T03:36:21.804Z,17.96
2022-09-17T03:38:49.241Z,18.02
2022-09-17T03:41:16.650Z,18.07
2022-09-17T03:43:44.065Z,18.12
2022-09-17T03:46:11.550Z,18.17
2022-09-17T03:48:39.984Z,18.23
2022-09-17T03:51:07.855Z,18.25
2022-09-17T03:53:35.578Z,18.36
2022-09-17T03:56:05.094Z,18.48
2022-09-17T03:58:33.605Z,18.57
2022-09-17T04:01:04.949Z,18.66
2022-09-17T04:03:33.219Z,18.72
2022-09-17T04:06:00.931Z,18.71
2022-09-17T04:08:28.429Z,18.78
2022-09-17T04:10:55.935Z,18.83
2022-09-17T04:13:23.410Z,18.90
2022-09-17T04:15:52.388Z,18.97
2022-09-17T04:18:19.957Z,19.04
2022-09-17T04:20:47.424Z,19.21
2022-09-17T04:23:15.054Z,19.54
2022-09-17T04:25:43.230Z,20.14
2022-09-17T04:28:10.939Z,20.56
2022-09-17T04:30:40.127Z,20.98
2022-09-17T04:33:10.789Z,21.85
2022-09-17T04:35:38.548Z,22.68
2022-09-17T04:38:06.218Z,23.38
2022-09-17T04:40:33.907Z,23.91
2022-09-17T04:43:03.431Z,24.34
2022-09-17T04:45:33.737Z,24.77
2022-09-17T04:48:02.176Z,24.99
2022-09-17T04:50:30.964Z,25.39
2022-09-17T04:53:01.511Z,25.82
2022-09-17T04:55:31.532Z,26.05
2022-09-17T04:57:59.323Z,26.21
2022-09-17T05:00:26.827Z,26.48
2022-09-17T05:02:55.741Z,26.36
2022-09-17T05:05:24.379Z,26.53
2022-09-17T05:07:54.443Z,26.91
2022-09-17T05:10:23.113Z,27.21
2022-09-17T05:12:56.417Z,27.61
2022-09-17T05:15:25.577Z,28.10
2022-09-17T05:17:53.160Z,28.35
2022-09-17T05:20:20.837Z,28.49
2022-09-17T05:22:51.678Z,28.26
2022-09-17T05:25:24.784Z,27.60
2022-09-17T05:27:56.549Z,27.34
2022-09-17T05:30:24.088Z,27.00
2022-09-17T05:33:00.102Z,26.47
2022-09-17T05:35:29.831Z,26.04
2022-09-17T05:38:03.221Z,25.48
2022-09-17T05:40:31.681Z,25.02
2022-09-17T05:43:00.427Z,24.57
2022-09-17T05:45:28.472Z,24.09
2022-09-17T05:47:57.591Z,23.81
2022-09-17T05:50:26.601Z,23.63
2022-09-17T05:52:54.788Z,23.43
2022-09-17T05:55:24.276Z,23.39
2022-09-17T05:57:53.203Z,23.37
2022-09-17T06:00:23.689Z,23.23
2022-09-17T06:02:58.143Z,23.19
2022-09-17T06:05:25.735Z,23.23
2022-09-17T06:07:53.234Z,23.28
2022-09-17T06:10:21.015Z,23.28
2022-09-17T06:12:59.554Z,23.33
2022-09-17T06:15:28.390Z,23.33
2022-09-17T06:17:55.891Z,23.30
2022-09-17T06:20:23.348Z,23.29
2022-09-17T06:22:58.832Z,23.37
2022-09-17T06:25:26.913Z,23.36
2022-09-17T06:27:54.343Z,23.30
2022-09-17T06:30:21.839Z,23.22
2022-09-17T06:32:49.312Z,23.03
2022-09-17T06:35:16.871Z,22.85
2022-09-17T06:37:44.907Z,22.71
2022-09-17T06:40:12.451Z,22.58
2022-09-17T06:42:41.471Z,22.41
2022-09-17T06:45:13.252Z,22.20
2022-09-17T06:47:43.330Z,22.01
2022-09-17T06:50:11.266Z,21.89
2022-09-17T06:52:38.970Z,21.85
2022-09-17T06:55:06.648Z,21.75
2022-09-17T06:57:34.108Z,21.62
2022-09-17T07:00:01.686Z,21.61
2022-09-17T07:02:30.356Z,21.65
2022-09-17T07:04:58.034Z,21.67
2022-09-17T07:07:25.577Z,21.73
2022-09-17T07:09:53.999Z,21.78
2022-09-17T07:12:22.551Z,21.88
2022-09-17T07:14:51.772Z,21.99
2022-09-17T07:17:20.894Z,22.11
2022-09-17T07:19:48.922Z,22.26
2022-09-17T07:22:16.830Z,22.42
2022-09-17T07:24:44.647Z,22.62
2022-09-17T07:27:12.411Z,22.71
2022-09-17T07:29:41.648Z,22.75
2022-09-17T07:32:09.144Z,22.79
2022-09-17T07:34:36.618Z,22.84
2022-09-17T07:37:04.264Z,22.85
2022-09-17T07:39:32.272Z,22.90
2022-09-17T07:42:00.053Z,23.06
2022-09-17T07:44:28.663Z,23.10
2022-09-17T07:46:56.232Z,23.09
2022-09-17T07:49:23.750Z,23.11
2022-09-17T07:51:51.354Z,23.29
2022-09-17T07:54:18.818Z,23.53
2022-09-17T07:56:46.394Z,23.81
2022-09-17T07:59:16.572Z,23.94
2022-09-17T08:01:44.838Z,23.93
2022-09-17T08:04:12.374Z,23.83
2022-09-17T08:06:41.330Z,23.76
2022-09-17T08:09:11.027Z,23.73
2022-09-17T08:11:55.109Z,23.39
2022-09-17T08:14:28.502Z,23.20
2022-09-17T08:16:57.486Z,23.07
2022-09-17T08:19:25.815Z,23.13
2022-09-17T08:21:53.347Z,23.28
2022-09-17T08:24:21.971Z,23.53
2022-09-17T08:26:49.412Z,23.77
2022-09-17T08:29:17.139Z,24.07
2022-09-17T08:31:44.749Z,24.43
2022-09-17T08:34:12.350Z,24.78
2022-09-17T08:36:40.082Z,25.25
2022-09-17T08:39:08.492Z,25.45
2022-09-17T08:42:05.709Z,25.48
2022-09-17T08:44:46.331Z,25.38
2022-09-17T08:47:26.068Z,25.09
2022-09-17T08:49:59.820Z,25.04
2022-09-17T08:52:59.755Z,25.16
2022-09-17T08:55:37.467Z,25.29
2022-09-17T08:58:13.918Z,25.50
2022-09-17T09:00:53.678Z,25.87
2022-09-17T09:03:52.032Z,26.57
2022-09-17T09:06:23.528Z,27.07
2022-09-17T09:08:57.352Z,27.20
2022-09-17T09:11:28.251Z,27.32
2022-09-17T09:14:12.569Z,27.80
2022-09-17T09:16:46.071Z,28.27
2022-09-17T09:19:23.444Z,28.74
2022-09-17T09:22:40.707Z,29.38
2022-09-17T09:25:25.214Z,29.62
2022-09-17T09:28:10.848Z,29.60
2022-09-17T09:31:07.576Z,29.98
2022-09-17T09:33:45.623Z,30.04
2022-09-17T09:36:16.978Z,30.15
2022-09-17T09:38:50.668Z,29.91
2022-09-17T09:41:40.953Z,29.89
2022-09-17T09:44:14.444Z,29.69
2022-09-17T09:47:05.398Z,29.49
2022-09-17T09:50:01.151Z,29.24
2022-09-17T09:53:00.134Z,29.01
2022-09-17T09:55:59.155Z,28.72
2022-09-17T09:58:40.774Z,28.36
2022-09-17T10:01:11.236Z,28.67
2022-09-17T10:03:46.436Z,29.14
2022-09-17T10:06:17.149Z,29.55
2022-09-17T10:08:50.836Z,30.01
2022-09-17T10:11:27.042Z,29.80
2022-09-17T10:14:15.663Z,29.36
2022-09-17T10:16:43.297Z,28.83
2022-09-17T10:19:13.835Z,28.52
2022-09-17T10:21:44.633Z,28.18
2022-09-17T10:24:25.538Z,27.90
2022-09-17T10:27:02.847Z,27.52
2022-09-17T10:29:30.680Z,27.15
2022-09-17T10:31:59.261Z,27.08
2022-09-17T10:34:27.956Z,26.89
2022-09-17T10:36:56.955Z,26.73
2022-09-17T10:39:27.866Z,26.57
2022-09-17T10:41:58.480Z,26.47
2022-09-17T10:44:35.076Z,26.37
2022-09-17T10:47:14.872Z,26.24
2022-09-17T10:49:48.818Z,26.11
2022-09-17T10:52:31.074Z,25.89
2022-09-17T10:55:19.159Z,25.85
2022-09-17T10:58:07.752Z,25.80
2022-09-17T11:01:08.453Z,25.77
2022-09-17T11:03:38.636Z,25.71
2022-09-17T11:06:21.228Z,25.71
2022-09-17T11:09:07.013Z,25.69
2022-09-17T11:11:59.769Z,25.67
2022-09-17T11:14:36.275Z,25.68
2022-09-17T11:17:09.566Z,25.81
2022-09-17T11:19:58.786Z,26.17
2022-09-17T11:22:35.472Z,26.48
2022-09-17T11:25:31.408Z,26.53
2022-09-17T11:28:24.750Z,26.44
2022-09-17T11:31:24.294Z,26.47
2022-09-17T11:34:00.876Z,26.42
2022-09-17T11:36:38.811Z,26.33
2022-09-17T11:39:16.302Z,26.34
2022-09-17T11:41:49.074Z,26.33
2022-09-17T11:44:24.890Z,26.24
2022-09-17T11:46:56.583Z,26.20
2022-09-17T11:49:42.199Z,26.11
2022-09-17T11:52:19.583Z,25.98
2022-09-17T11:54:50.043Z,25.94
2022-09-17T11:57:22.003Z,25.78
2022-09-17T11:59:58.671Z,25.66
2022-09-17T12:03:07.022Z,25.57
2022-09-17T12:05:43.499Z,25.44
2022-09-17T12:08:48.737Z,25.27
2022-09-17T12:11:27.818Z,25.18
2022-09-17T12:14:04.991Z,25.04
2022-09-17T12:16:45.221Z,25.12
2022-09-17T12:19:25.821Z,25.19
2022-09-17T12:22:25.387Z,25.34
2022-09-17T12:24:54.194Z,25.32
2022-09-17T12:27:38.171Z,25.21
2022-09-17T12:30:13.515Z,25.09
2022-09-17T12:32:50.493Z,25.14
2022-09-17T12:36:03.006Z,25.29
2022-09-17T12:38:50.712Z,25.47
2022-09-17T12:41:30.063Z,25.60
2022-09-17T12:43:58.935Z,25.61
2022-09-17T12:46:44.496Z,25.59
2022-09-17T12:49:32.919Z,25.51
2022-09-17T12:52:36.223Z,25.45
2022-09-17T12:55:09.457Z,25.41
2022-09-17T12:57:59.409Z,25.34
2022-09-17T13:00:27.962Z,25.30
2022-09-17T13:03:08.609Z,25.30
2022-09-17T13:05:57.823Z,25.28
2022-09-17T13:08:56.692Z,25.28
2022-09-17T13:11:26.899Z,25.14
2022-09-17T13:14:02.454Z,25.00
2022-09-17T13:16:48.465Z,24.86
2022-09-17T13:19:18.870Z,24.76
2022-09-17T13:22:20.424Z,24.61
2022-09-17T13:25:02.657Z,24.41
2022-09-17T13:27:31.312Z,24.30
2022-09-17T13:30:00.500Z,24.22
2022-09-17T13:32:33.993Z,24.16
2022-09-17T13:35:10.577Z,24.12
2022-09-17T13:37:39.971Z,24.07
2022-09-17T13:40:26.012Z,23.97
2022-09-17T13:42:59.617Z,23.84
2022-09-17T13:45:27.241Z,23.76
2022-09-17T13:47:56.606Z,23.70
2022-09-17T13:50:41.326Z,23.64
2022-09-17T13:53:14.799Z,23.69
2022-09-17T13:56:06.945Z,23.64
2022-09-17T13:58:36.913Z,23.59
2022-09-17T14:01:12.245Z,23.53
2022-09-17T14:03:44.619Z,23.48
2022-09-17T14:06:12.221Z,23.42
2022-09-17T14:08:45.744Z,23.36
2022-09-17T14:11:32.659Z,23.36
2022-09-17T14:14:06.410Z,23.30
2022-09-17T14:16:47.459Z,23.28
2022-09-17T14:19:16.123Z,23.23
2022-09-17T14:21:57.615Z,23.14
2022-09-17T14:24:30.115Z,23.16
2022-09-17T14:27:24.546Z,23.10
2022-09-17T14:30:18.995Z,23.03
2022-09-17T14:32:52.249Z,22.93
2022-09-17T14:35:44.629Z,22.86
2022-09-17T14:38:33.228Z,22.80
2022-09-17T14:41:05.688Z,22.68
2022-09-17T14:43:42.554Z,22.60
2022-09-17T14:46:18.133Z,22.53
2022-09-17T14:48:45.624Z,22.45
2022-09-17T14:51:25.743Z,22.41
2022-09-17T14:54:09.838Z,22.31
2022-09-17T14:56:44.408Z,22.23
2022-09-17T14:59:38.143Z,22.10
2022-09-17T15:02:27.560Z,22.00
2022-09-17T15:04:55.371Z,21.89
2022-09-17T15:07:23.667Z,21.79
2022-09-17T15:09:55.427Z,21.70
2022-09-17T15:12:30.293Z,21.61
2022-09-17T15:14:58.635Z,21.51
2022-09-17T15:17:26.282Z,21.44
2022-09-17T15:19:58.135Z,21.35
2022-09-17T15:22:32.681Z,21.30
2022-09-17T15:25:10.526Z,21.25
2022-09-17T15:27:44.048Z,21.18
2022-09-17T15:30:14.476Z,21.12
2022-09-17T15:32:49.422Z,21.05
2022-09-17T15:35:18.929Z,20.99
2022-09-17T15:40:43.145Z,20.90
2022-09-17T15:43:31.856Z,20.88
2022-09-17T15:46:27.135Z,20.81
2022-09-17T15:48:58.082Z,20.74
2022-09-17T15:51:35.002Z,20.69
2022-09-17T15:54:05.772Z,20.65
2022-09-17T15:56:35.924Z,20.59
2022-09-17T15:59:23.426Z,20.54
2022-09-17T16:01:54.016Z,20.45
2022-09-17T16:04:31.173Z,20.42
2022-09-17T16:07:24.535Z,20.39
2022-09-17T16:09:55.228Z,20.36
2022-09-17T16:12:25.212Z,20.32
2022-09-17T16:14:54.927Z,20.28
2022-09-17T16:17:33.343Z,20.25
2022-09-17T16:20:06.438Z,20.23
2022-09-17T16:22:35.486Z,20.20
2022-09-17T16:25:03.083Z,20.15
2022-09-17T16:27:43.105Z,20.14
2022-09-17T16:30:15.681Z,20.13
2022-09-17T16:32:43.321Z,20.12
2022-09-17T16:35:19.751Z,20.02
2022-09-17T16:37:52.937Z,20.05
2022-09-17T16:40:21.843Z,20.01
2022-09-17T16:42:49.815Z,19.98
2022-09-17T16:45:17.549Z,19.93
2022-09-17T16:47:45.396Z,19.90
2022-09-17T16:50:15.951Z,19.82
2022-09-17T16:52:44.974Z,19.83
2022-09-17T16:55:17.254Z,19.82
2022-09-17T16:57:44.997Z,19.80
2022-09-17T17:00:16.864Z,19.79
2022-09-17T17:02:45.166Z,19.75
2022-09-17T17:05:12.843Z,19.73
2022-09-17T17:07:40.454Z,19.72
2022-09-17T17:10:09.377Z,19.70
2022-09-17T17:12:38.605Z,19.68
2022-09-17T17:15:10.315Z,19.63
2022-09-17T17:17:40.963Z,19.58
2022-09-17T17:20:10.450Z,19.54
2022-09-17T17:22:38.128Z,19.54
2022-09-17T17:25:07.203Z,19.52
2022-09-17T17:27:35.560Z,19.49
2022-09-17T17:30:07.080Z,19.48
2022-09-17T17:32:36.470Z,19.45
2022-09-17T17:35:04.977Z,19.42
2022-09-17T17:37:33.893Z,19.44
2022-09-17T17:40:04.514Z,19.42
2022-09-17T17:42:37.446Z,19.38
2022-09-17T17:45:06.807Z,19.35
2022-09-17T17:47:34.823Z,19.32
2022-09-17T17:50:02.603Z,19.29
2022-09-17T17:52:32.105Z,19.23
2022-09-17T17:54:59.621Z,19.21
2022-09-17T17:57:27.060Z,19.17
2022-09-17T17:59:57.446Z,19.11
2022-09-17T18:02:25.040Z,19.09
2022-09-17T18:04:52.641Z,19.06
2022-09-17T18:07:20.077Z,19.06
2022-09-17T18:09:47.682Z,19.03
2022-09-17T18:12:15.379Z,19.02
2022-09-17T18:14:42.853Z,19.00
2022-09-17T18:17:10.380Z,18.98
2022-09-17T18:19:37.854Z,18.91
2022-09-17T18:22:05.335Z,18.93
2022-09-17T18:24:33.077Z,18.94
2022-09-17T18:27:00.548Z,18.93
2022-09-17T18:29:29.311Z,18.89
2022-09-17T18:31:56.803Z,18.80
2022-09-17T18:34:24.585Z,18.84
2022-09-17T18:36:52.627Z,18.83
2022-09-17T18:39:57.121Z,18.78
2022-09-17T18:42:09.925Z,18.75
2022-09-17T18:44:37.469Z,18.77
2022-09-17T18:47:05.051Z,18.76
2022-09-17T18:49:32.747Z,18.74
2022-09-17T18:52:01.246Z,18.71
2022-09-17T18:54:28.716Z,18.67
2022-09-17T18:56:56.246Z,18.66
2022-09-17T18:59:23.765Z,18.64
2022-09-17T19:01:51.262Z,18.63
2022-09-17T19:04:18.755Z,18.55
2022-09-17T19:06:46.308Z,18.59
2022-09-17T19:09:13.939Z,18.54
2022-09-17T19:11:41.375Z,18.48
2022-09-17T19:14:10.777Z,18.41
2022-09-17T19:16:38.399Z,18.39
2022-09-17T19:19:07.048Z,18.36
2022-09-17T19:21:34.793Z,18.25
2022-09-17T19:24:03.637Z,18.30
2022-09-17T19:26:31.081Z,18.28
2022-09-17T19:29:00.637Z,18.30
2022-09-17T19:31:28.763Z,18.33
2022-09-17T19:33:57.145Z,18.32
2022-09-17T19:36:24.739Z,18.24
2022-09-17T19:38:52.522Z,18.22
2022-09-17T19:41:23.456Z,18.24
2022-09-17T19:43:52.776Z,18.18
2022-09-17T19:46:22.536Z,18.20
2022-09-17T19:48:54.665Z,18.13
2022-09-17T19:51:25.293Z,18.05
2022-09-17T19:53:53.360Z,18.00
2022-09-17T19:56:23.129Z,18.04
2022-09-17T19:58:50.834Z,18.02
2022-09-17T20:01:19.445Z,18.01
2022-09-17T20:03:47.156Z,18.06
2022-09-17T20:06:17.278Z,18.02
2022-09-17T20:08:49.568Z,17.99
2022-09-17T20:11:18.553Z,17.97
2022-09-17T20:13:46.021Z,17.96
2022-09-17T20:16:17.138Z,17.93
2022-09-17T20:18:44.821Z,17.94
2022-09-17T20:21:18.592Z,17.93
2022-09-17T20:23:46.249Z,17.92
2022-09-17T20:26:14.434Z,17.95
2022-09-17T20:28:42.365Z,17.89
2022-09-17T20:31:21.785Z,17.92
2022-09-17T20:33:53.330Z,17.91
2022-09-17T20:36:23.026Z,17.89
2022-09-17T20:41:42.486Z,17.87
2022-09-17T20:44:09.954Z,17.86
2022-09-17T20:46:37.654Z,17.89
2022-09-17T20:49:05.721Z,17.92
2022-09-17T20:51:34.184Z,17.96
2022-09-17T20:54:02.140Z,17.99
2022-09-17T20:56:33.413Z,17.99
2022-09-17T20:59:23.552Z,17.98
2022-09-17T21:01:53.700Z,17.98
2022-09-17T21:04:22.376Z,17.93
2022-09-17T21:06:52.983Z,17.96
2022-09-17T21:09:20.632Z,17.93
2022-09-17T21:11:49.367Z,17.93
2022-09-17T21:14:18.527Z,17.93
2022-09-17T21:16:46.880Z,17.93
2022-09-17T21:19:16.399Z,17.91
2022-09-17T21:21:44.455Z,17.90
2022-09-17T21:24:12.516Z,17.87
2022-09-17T21:26:40.070Z,17.85
2022-09-17T21:29:07.585Z,17.83
2022-09-17T21:31:37.222Z,17.81
2022-09-17T21:34:11.149Z,17.79
2022-09-17T21:36:40.258Z,17.79
2022-09-17T21:39:12.089Z,17.76
2022-09-17T21:41:42.635Z,17.72
2022-09-17T21:44:12.238Z,17.70
2022-09-17T21:46:41.223Z,17.66
2022-09-17T21:49:09.354Z,17.60
2022-09-17T21:51:42.596Z,17.56
2022-09-17T21:54:13.205Z,17.52
2022-09-17T21:56:40.683Z,17.50
2022-09-17T21:59:11.302Z,17.45
2022-09-17T22:01:47.141Z,17.43
2022-09-17T22:04:20.666Z,17.40
2022-09-17T22:06:49.845Z,17.37
2022-09-17T22:09:20.640Z,17.35
2022-09-17T22:11:48.741Z,17.32
2022-09-17T22:14:19.858Z,17.28
2022-09-17T22:16:50.735Z,17.24
2022-09-17T22:19:19.793Z,17.18
2022-09-17T22:21:51.479Z,17.14
2022-09-17T22:24:20.719Z,17.13
2022-09-17T22:26:56.439Z,17.12
2022-09-17T22:29:25.321Z,17.09
2022-09-17T22:31:53.006Z,17.08
2022-09-17T22:34:22.608Z,17.07
2022-09-17T22:36:50.497Z,17.04
2022-09-17T22:39:21.048Z,16.98
2022-09-17T22:41:48.718Z,16.93
2022-09-17T22:44:18.526Z,16.95
2022-09-17T22:46:48.105Z,16.88
2022-09-17T22:49:16.064Z,16.89
2022-09-17T22:51:44.865Z,16.87
2022-09-17T22:54:14.101Z,16.86
2022-09-17T22:56:45.320Z,16.86
2022-09-17T22:59:13.039Z,16.84
2022-09-17T23:01:41.494Z,16.80
2022-09-17T23:04:09.900Z,16.83
2022-09-17T23:06:38.898Z,16.81
2022-09-17T23:09:07.462Z,16.81
2022-09-17T23:11:37.583Z,16.79
2022-09-17T23:14:12.290Z,16.79
2022-09-17T23:16:42.689Z,16.71
2022-09-17T23:19:10.895Z,16.75
2022-09-17T23:21:38.994Z,16.74
2022-09-17T23:24:06.794Z,16.72
2022-09-17T23:26:34.811Z,16.70
2022-09-17T23:29:05.356Z,16.66
2022-09-17T23:31:35.289Z,16.65
2022-09-17T23:34:05.208Z,16.67
2022-09-17T23:36:35.976Z,16.65
2022-09-17T23:39:05.008Z,16.59
2022-09-17T23:41:37.945Z,16.59
2022-09-17T23:44:13.786Z,16.52
2022-09-17T23:46:43.118Z,16.52
2022-09-17T23:49:12.593Z,16.50
2022-09-17T23:51:40.416Z,16.48
2022-09-17T23:54:08.031Z,16.44
2022-09-17T23:56:35.868Z,16.41
2022-09-17T23:59:04.302Z,16.37
